createdAt,value
2017-07-08T00:00:36.132Z,17.10
2017-07-08T00:03:03.680Z,17.10
2017-07-08T00:05:31.218Z,17.10
2017-07-08T00:07:59.230Z,17.10
2017-07-08T00:10:26.760Z,17.10
2017-07-08T00:12:54.294Z,17.10
2017-07-08T00:15:22.216Z,17.10
2017-07-08T00:17:49.748Z,17.10
2017-07-08T00:20:17.273Z,16.90
2017-07-08T00:22:45.182Z,16.90
2017-07-08T00:25:12.717Z,16.80
2017-07-08T00:27:40.274Z,16.70
2017-07-08T00:30:08.194Z,16.60
2017-07-08T00:32:37.169Z,16.60
2017-07-08T00:35:04.691Z,16.60
2017-07-08T00:37:32.622Z,16.50
2017-07-08T00:40:00.141Z,16.60
2017-07-08T00:42:27.670Z,16.50
2017-07-08T00:44:55.440Z,16.50
2017-07-08T00:47:22.954Z,16.50
2017-07-08T00:49:50.512Z,16.50
2017-07-08T00:52:18.052Z,16.40
2017-07-08T00:54:45.907Z,16.50
2017-07-08T00:57:13.430Z,16.40
2017-07-08T00:59:40.981Z,16.40
2017-07-08T01:02:09.288Z,16.40
2017-07-08T01:04:36.820Z,16.40
2017-07-08T01:07:04.719Z,16.40
2017-07-08T01:09:32.246Z,16.40
2017-07-08T01:11:59.769Z,16.30
2017-07-08T01:14:27.291Z,16.30
2017-07-08T01:16:54.826Z,16.30
2017-07-08T01:19:22.377Z,16.30
2017-07-08T01:21:49.934Z,16.30
2017-07-08T01:24:18.285Z,16.20
2017-07-08T01:26:45.818Z,16.20
2017-07-08T01:29:13.349Z,16.20
2017-07-08T01:31:40.897Z,16.10
2017-07-08T01:34:08.433Z,15.90
2017-07-08T01:36:35.975Z,15.90
2017-07-08T01:39:03.536Z,15.70
2017-07-08T01:41:31.055Z,15.70
2017-07-08T01:43:58.604Z,15.50
2017-07-08T01:46:26.148Z,15.50
2017-07-08T01:48:54.470Z,15.50
2017-07-08T01:51:22.343Z,15.40
2017-07-08T01:53:49.882Z,15.50
2017-07-08T01:56:17.423Z,15.50
2017-07-08T01:58:45.707Z,15.60
2017-07-08T02:01:13.261Z,15.60
2017-07-08T02:03:41.180Z,15.60
2017-07-08T02:06:08.718Z,15.60
2017-07-08T02:08:36.249Z,15.60
2017-07-08T02:11:04.159Z,15.60
2017-07-08T02:13:31.675Z,15.50
2017-07-08T02:15:59.195Z,15.50
2017-07-08T02:18:26.736Z,15.40
2017-07-08T02:20:54.281Z,15.40
2017-07-08T02:23:21.821Z,15.40
2017-07-08T02:25:49.347Z,15.40
2017-07-08T02:28:18.402Z,15.30
2017-07-08T02:30:45.939Z,15.30
2017-07-08T02:33:13.462Z,15.30
2017-07-08T02:35:41.382Z,15.30
2017-07-08T02:38:08.892Z,15.30
2017-07-08T02:40:37.198Z,15.20
2017-07-08T02:43:04.768Z,15.20
2017-07-08T02:45:32.312Z,15.20
2017-07-08T02:48:00.182Z,15.10
2017-07-08T02:50:27.711Z,15.00
2017-07-08T02:52:55.233Z,14.90
2017-07-08T02:55:22.797Z,14.80
2017-07-08T02:57:50.330Z,14.80
2017-07-08T03:00:17.889Z,14.80
2017-07-08T03:02:45.425Z,14.80
2017-07-08T03:05:12.966Z,14.80
2017-07-08T03:07:41.259Z,14.70
2017-07-08T03:10:09.047Z,14.70
2017-07-08T03:12:36.562Z,14.60
2017-07-08T03:15:04.165Z,14.50
2017-07-08T03:17:32.046Z,14.40
2017-07-08T03:19:59.567Z,14.20
2017-07-08T03:22:27.120Z,14.20
2017-07-08T03:24:54.657Z,14.10
2017-07-08T03:27:22.972Z,13.90
2017-07-08T03:29:50.522Z,13.90
2017-07-08T03:32:18.554Z,13.90
2017-07-08T03:34:46.089Z,13.90
2017-07-08T03:37:13.601Z,13.90
2017-07-08T03:39:42.231Z,14.00
2017-07-08T03:42:09.742Z,14.00
2017-07-08T03:44:38.027Z,14.20
2017-07-08T03:47:05.555Z,14.10
2017-07-08T03:49:33.097Z,14.20
2017-07-08T03:52:00.625Z,14.20
2017-07-08T03:54:28.163Z,14.30
2017-07-08T03:56:55.701Z,14.30
2017-07-08T03:59:23.220Z,14.40
2017-07-08T04:01:50.790Z,14.40
2017-07-08T04:04:18.338Z,14.40
2017-07-08T04:06:45.860Z,14.40
2017-07-08T04:09:13.397Z,14.40
2017-07-08T04:11:40.911Z,14.40
2017-07-08T04:14:08.452Z,14.40
2017-07-08T04:16:35.990Z,14.60
2017-07-08T04:19:03.528Z,14.60
2017-07-08T04:21:31.831Z,14.70
2017-07-08T04:23:59.363Z,14.70
2017-07-08T04:26:27.273Z,14.70
2017-07-08T04:28:54.785Z,14.80
2017-07-08T04:31:23.085Z,14.90
2017-07-08T04:33:50.610Z,14.90
2017-07-08T04:36:18.122Z,14.90
2017-07-08T04:38:45.671Z,14.90
2017-07-08T04:41:13.228Z,14.90
2017-07-08T04:43:40.786Z,15.00
2017-07-08T04:46:08.322Z,15.10
2017-07-08T04:48:35.877Z,15.20
2017-07-08T04:51:03.427Z,15.40
2017-07-08T04:53:30.981Z,15.50
2017-07-08T04:55:58.811Z,15.70
2017-07-08T04:58:26.368Z,15.90
2017-07-08T05:00:53.913Z,16.10
2017-07-08T05:03:21.454Z,16.30
2017-07-08T05:05:49.731Z,16.40
2017-07-08T05:08:17.269Z,16.40
2017-07-08T05:10:44.798Z,16.50
2017-07-08T05:13:12.352Z,16.60
2017-07-08T05:15:40.313Z,16.80
2017-07-08T05:18:07.849Z,17.00
2017-07-08T05:20:35.362Z,17.30
2017-07-08T05:23:02.881Z,17.60
2017-07-08T05:25:30.405Z,17.90
2017-07-08T05:27:57.990Z,18.20
2017-07-08T05:30:25.877Z,18.40
2017-07-08T05:32:53.409Z,18.70
2017-07-08T05:35:20.931Z,19.10
2017-07-08T05:37:48.476Z,19.50
2017-07-08T05:40:16.245Z,19.50
2017-07-08T05:42:43.794Z,19.10
2017-07-08T05:45:11.602Z,19.10
2017-07-08T05:47:39.149Z,19.50
2017-07-08T05:50:07.455Z,20.30
2017-07-08T05:52:35.003Z,20.30
2017-07-08T05:55:02.518Z,20.60
2017-07-08T05:57:30.041Z,21.10
2017-07-08T05:59:57.566Z,21.40
2017-07-08T06:02:25.098Z,21.60
2017-07-08T06:04:52.651Z,22.00
2017-07-08T06:07:20.181Z,22.50
2017-07-08T06:09:47.750Z,22.90
2017-07-08T06:12:15.307Z,23.30
2017-07-08T06:14:42.913Z,23.70
2017-07-08T06:17:10.836Z,24.40
2017-07-08T06:19:38.351Z,24.70
2017-07-08T06:22:06.637Z,25.10
2017-07-08T06:24:34.206Z,25.10
2017-07-08T06:27:01.730Z,25.40
2017-07-08T06:29:29.353Z,25.80
2017-07-08T06:31:56.923Z,26.20
2017-07-08T06:34:24.444Z,26.50
2017-07-08T06:36:52.024Z,26.60
2017-07-08T06:39:19.866Z,26.20
2017-07-08T06:41:48.972Z,25.80
2017-07-08T06:44:16.514Z,25.50
2017-07-08T06:46:44.078Z,25.50
2017-07-08T06:49:11.612Z,25.30
2017-07-08T06:51:39.172Z,25.10
2017-07-08T06:54:07.472Z,25.20
2017-07-08T06:56:35.257Z,25.20
2017-07-08T06:59:04.443Z,24.90
2017-07-08T07:01:31.994Z,24.70
2017-07-08T07:03:59.886Z,24.40
2017-07-08T07:06:28.677Z,23.80
2017-07-08T07:08:56.218Z,23.50
2017-07-08T07:11:23.787Z,23.20
2017-07-08T07:13:51.963Z,23.00
2017-07-08T07:16:19.549Z,22.90
2017-07-08T07:18:47.602Z,22.80
2017-07-08T07:21:15.204Z,22.90
2017-07-08T07:23:43.510Z,23.90
2017-07-08T07:26:12.114Z,23.90
2017-07-08T07:28:39.662Z,24.90
2017-07-08T07:31:07.926Z,25.90
2017-07-08T07:33:35.722Z,26.50
2017-07-08T07:36:03.258Z,27.00
2017-07-08T07:38:30.789Z,27.40
2017-07-08T07:40:58.693Z,27.60
2017-07-08T07:43:26.320Z,28.20
2017-07-08T07:45:53.872Z,28.20
2017-07-08T07:48:22.190Z,28.40
2017-07-08T07:50:49.747Z,28.40
2017-07-08T07:53:18.005Z,28.80
2017-07-08T07:55:45.547Z,28.90
2017-07-08T07:58:14.093Z,29.00
2017-07-08T08:00:42.185Z,29.00
2017-07-08T08:03:10.971Z,29.30
2017-07-08T08:05:41.886Z,28.90
2017-07-08T08:08:09.406Z,28.80
2017-07-08T08:10:38.116Z,28.60
2017-07-08T08:13:05.663Z,28.50
2017-07-08T08:15:34.284Z,28.30
2017-07-08T08:18:01.818Z,28.00
2017-07-08T08:20:29.713Z,27.70
2017-07-08T08:22:57.243Z,27.50
2017-07-08T08:25:24.814Z,27.40
2017-07-08T08:27:52.361Z,27.30
2017-07-08T08:30:19.906Z,27.10
2017-07-08T08:32:47.448Z,26.80
2017-07-08T08:35:15.831Z,26.60
2017-07-08T08:37:43.362Z,26.50
2017-07-08T08:40:10.891Z,26.20
2017-07-08T08:42:38.784Z,25.80
2017-07-08T08:45:06.354Z,25.60
2017-07-08T08:47:33.877Z,25.50
2017-07-08T08:50:01.421Z,25.60
2017-07-08T08:52:28.966Z,25.60
2017-07-08T08:54:56.529Z,25.70
2017-07-08T08:57:24.077Z,25.80
2017-07-08T08:59:51.608Z,25.90
2017-07-08T09:02:19.959Z,26.30
2017-07-08T09:04:47.748Z,26.20
2017-07-08T09:07:15.634Z,26.50
2017-07-08T09:09:43.931Z,26.60
2017-07-08T09:12:11.920Z,26.60
2017-07-08T09:14:39.454Z,26.70
2017-07-08T09:17:06.977Z,26.80
2017-07-08T09:19:34.498Z,27.20
2017-07-08T09:22:02.050Z,27.40
2017-07-08T09:24:29.604Z,27.50
2017-07-08T09:26:57.181Z,27.70
2017-07-08T09:29:24.733Z,27.60
2017-07-08T09:31:52.304Z,27.60
2017-07-08T09:34:20.265Z,27.70
2017-07-08T09:36:47.788Z,27.80
2017-07-08T09:39:15.316Z,27.90
2017-07-08T09:41:42.877Z,27.70
2017-07-08T09:44:10.725Z,27.60
2017-07-08T09:46:38.261Z,27.40
2017-07-08T09:49:05.798Z,27.20
2017-07-08T09:51:33.348Z,27.00
2017-07-08T09:54:00.890Z,27.10
2017-07-08T09:56:29.201Z,27.90
2017-07-08T09:58:57.022Z,27.80
2017-07-08T10:01:24.545Z,28.30
2017-07-08T10:03:52.071Z,28.20
2017-07-08T10:06:19.872Z,27.90
2017-07-08T10:08:47.393Z,27.80
2017-07-08T10:11:14.935Z,27.80
2017-07-08T10:13:43.544Z,27.90
2017-07-08T10:16:11.229Z,27.80
2017-07-08T10:18:38.833Z,27.80
2017-07-08T10:21:06.754Z,27.70
2017-07-08T10:23:34.296Z,27.80
2017-07-08T10:26:01.962Z,27.90
2017-07-08T10:28:30.771Z,27.90
2017-07-08T10:30:58.315Z,27.90
2017-07-08T10:33:25.856Z,27.90
2017-07-08T10:35:53.379Z,27.90
2017-07-08T10:38:20.914Z,28.00
2017-07-08T10:40:48.459Z,28.20
2017-07-08T10:43:15.990Z,28.30
2017-07-08T10:45:44.191Z,28.30
2017-07-08T10:48:11.764Z,28.40
2017-07-08T10:50:39.468Z,28.40
2017-07-08T10:53:06.997Z,28.30
2017-07-08T10:55:34.535Z,28.30
2017-07-08T10:58:02.516Z,28.30
2017-07-08T11:00:30.089Z,28.30
2017-07-08T11:02:57.628Z,28.50
2017-07-08T11:05:25.411Z,28.60
2017-07-08T11:07:52.953Z,28.70
2017-07-08T11:10:20.485Z,28.80
2017-07-08T11:12:48.010Z,28.80
2017-07-08T11:15:15.533Z,28.50
2017-07-08T11:17:43.086Z,28.40
2017-07-08T11:20:10.634Z,28.30
2017-07-08T11:22:38.169Z,28.10
2017-07-08T11:25:05.791Z,28.10
2017-07-08T11:27:33.632Z,28.20
2017-07-08T11:30:01.188Z,28.20
2017-07-08T11:32:28.716Z,28.40
2017-07-08T11:34:56.551Z,28.50
2017-07-08T11:37:24.098Z,28.60
2017-07-08T11:39:51.621Z,28.70
2017-07-08T11:42:19.156Z,28.70
2017-07-08T11:44:46.695Z,28.70
2017-07-08T11:47:14.252Z,28.50
2017-07-08T11:49:41.841Z,28.60
2017-07-08T11:52:09.673Z,28.70
2017-07-08T11:54:37.209Z,28.60
2017-07-08T11:57:04.811Z,28.50
2017-07-08T11:59:32.664Z,28.40
2017-07-08T12:02:00.195Z,28.50
2017-07-08T12:04:27.755Z,28.70
2017-07-08T12:06:55.572Z,29.10
2017-07-08T12:09:23.126Z,29.60
2017-07-08T12:11:50.662Z,30.00
2017-07-08T12:14:18.468Z,30.10
2017-07-08T12:16:45.983Z,30.10
2017-07-08T12:19:13.506Z,30.30
2017-07-08T12:21:41.070Z,30.40
2017-07-08T12:24:08.585Z,30.30
2017-07-08T12:26:36.121Z,29.80
2017-07-08T12:29:04.423Z,29.30
2017-07-08T12:31:31.949Z,29.20
2017-07-08T12:33:59.881Z,29.30
2017-07-08T12:36:27.428Z,29.20
2017-07-08T12:38:54.951Z,29.40
2017-07-08T12:41:22.859Z,29.80
2017-07-08T12:43:50.394Z,29.80
2017-07-08T12:46:17.945Z,30.00
2017-07-08T12:48:45.490Z,30.40
2017-07-08T12:51:13.041Z,30.80
2017-07-08T12:53:40.567Z,31.10
2017-07-08T12:56:08.364Z,31.20
2017-07-08T12:58:35.886Z,31.40
2017-07-08T13:01:03.396Z,31.90
2017-07-08T13:03:31.702Z,31.80
2017-07-08T13:05:59.675Z,31.70
2017-07-08T13:08:27.223Z,32.50
2017-07-08T13:10:54.761Z,32.50
2017-07-08T13:13:22.594Z,32.20
2017-07-08T13:15:50.277Z,32.30
2017-07-08T13:18:18.599Z,33.40
2017-07-08T13:20:46.158Z,33.40
2017-07-08T13:23:13.680Z,34.10
2017-07-08T13:25:41.999Z,34.10
2017-07-08T13:28:09.778Z,34.00
2017-07-08T13:30:37.302Z,33.70
2017-07-08T13:33:04.841Z,33.80
2017-07-08T13:35:32.398Z,34.60
2017-07-08T13:38:00.730Z,34.90
2017-07-08T13:40:28.281Z,34.80
2017-07-08T13:42:55.828Z,35.00
2017-07-08T13:45:23.351Z,35.40
2017-07-08T13:47:50.886Z,35.70
2017-07-08T13:50:18.416Z,35.20
2017-07-08T13:52:46.016Z,34.80
2017-07-08T13:55:13.576Z,34.30
2017-07-08T13:57:41.118Z,34.00
2017-07-08T14:00:08.639Z,34.60
2017-07-08T14:02:36.178Z,34.80
2017-07-08T14:05:03.739Z,34.20
2017-07-08T14:07:31.286Z,34.50
2017-07-08T14:09:58.837Z,35.20
2017-07-08T14:12:26.389Z,35.50
2017-07-08T14:14:53.975Z,35.80
2017-07-08T14:17:21.519Z,34.80
2017-07-08T14:19:49.515Z,34.40
2017-07-08T14:22:17.106Z,35.30
2017-07-08T14:24:44.665Z,36.30
2017-07-08T14:27:12.483Z,36.00
2017-07-08T14:29:40.031Z,34.50
2017-07-08T14:32:07.580Z,34.90
2017-07-08T14:34:35.386Z,35.30
2017-07-08T14:37:02.986Z,36.30
2017-07-08T14:39:30.520Z,36.50
2017-07-08T14:41:58.484Z,36.10
2017-07-08T14:44:26.014Z,36.10
2017-07-08T14:46:53.540Z,36.00
2017-07-08T14:49:21.389Z,36.30
2017-07-08T14:51:48.979Z,36.60
2017-07-08T14:54:16.510Z,37.60
2017-07-08T14:56:44.375Z,38.30
2017-07-08T14:59:11.906Z,38.80
2017-07-08T15:01:39.455Z,38.10
2017-07-08T15:04:06.988Z,38.10
2017-07-08T15:06:34.530Z,36.90
2017-07-08T15:09:02.069Z,36.00
2017-07-08T15:11:29.664Z,35.30
2017-07-08T15:13:57.189Z,35.30
2017-07-08T15:16:24.746Z,35.50
2017-07-08T15:18:52.300Z,36.00
2017-07-08T15:21:19.832Z,35.60
2017-07-08T15:23:47.386Z,35.70
2017-07-08T15:26:14.957Z,35.80
2017-07-08T15:28:42.518Z,35.80
2017-07-08T15:31:10.065Z,35.90
2017-07-08T15:33:37.616Z,36.00
2017-07-08T15:36:05.166Z,36.00
2017-07-08T15:38:32.740Z,36.40
2017-07-08T15:41:00.546Z,37.10
2017-07-08T15:43:28.065Z,37.90
2017-07-08T15:45:55.604Z,38.10
2017-07-08T15:48:24.240Z,38.10
2017-07-08T15:50:51.771Z,38.10
2017-07-08T15:53:19.300Z,37.60
2017-07-08T15:55:46.837Z,37.30
2017-07-08T15:58:14.347Z,36.80
2017-07-08T16:00:41.912Z,37.10
2017-07-08T16:03:09.469Z,37.40
2017-07-08T16:05:37.015Z,37.30
2017-07-08T16:08:04.551Z,37.40
2017-07-08T16:10:33.214Z,37.70
2017-07-08T16:13:00.763Z,37.60
2017-07-08T16:15:28.304Z,37.80
2017-07-08T16:17:55.867Z,37.50
2017-07-08T16:20:23.403Z,36.40
2017-07-08T16:22:50.962Z,35.00
2017-07-08T16:25:18.757Z,34.40
2017-07-08T16:27:46.288Z,34.50
2017-07-08T16:30:13.864Z,35.30
2017-07-08T16:32:41.762Z,36.50
2017-07-08T16:35:09.307Z,36.80
2017-07-08T16:37:36.902Z,38.10
2017-07-08T16:40:05.539Z,38.70
2017-07-08T16:42:33.060Z,38.70
2017-07-08T16:45:01.398Z,38.00
2017-07-08T16:47:28.933Z,38.00
2017-07-08T16:49:56.458Z,38.10
2017-07-08T16:52:24.742Z,37.50
2017-07-08T16:54:52.673Z,37.50
2017-07-08T16:57:20.222Z,37.80
2017-07-08T16:59:47.751Z,36.80
2017-07-08T17:02:15.288Z,35.80
2017-07-08T17:04:42.862Z,35.60
2017-07-08T17:07:10.403Z,35.70
2017-07-08T17:09:37.957Z,35.10
2017-07-08T17:12:05.502Z,35.20
2017-07-08T17:14:33.062Z,35.40
2017-07-08T17:17:01.683Z,32.70
2017-07-08T17:19:29.236Z,32.60
2017-07-08T17:21:56.775Z,32.00
2017-07-08T17:24:24.703Z,31.50
2017-07-08T17:26:52.229Z,31.70
2017-07-08T17:29:19.767Z,32.10
2017-07-08T17:31:47.332Z,31.90
2017-07-08T17:34:14.891Z,31.70
2017-07-08T17:36:42.420Z,30.70
2017-07-08T17:39:10.243Z,30.00
2017-07-08T17:41:37.775Z,29.40
2017-07-08T17:44:05.325Z,28.90
2017-07-08T17:46:32.893Z,28.70
2017-07-08T17:49:00.459Z,28.20
2017-07-08T17:51:28.318Z,27.80
2017-07-08T17:53:55.866Z,27.50
2017-07-08T17:56:24.146Z,27.20
2017-07-08T17:58:52.497Z,27.10
2017-07-08T18:01:20.051Z,27.10
2017-07-08T18:03:47.609Z,27.10
2017-07-08T18:06:15.186Z,27.00
2017-07-08T18:08:42.759Z,26.90
2017-07-08T18:11:10.322Z,26.80
2017-07-08T18:13:37.911Z,26.80
2017-07-08T18:16:05.473Z,26.70
2017-07-08T18:18:33.027Z,26.60
2017-07-08T18:21:00.554Z,26.50
2017-07-08T18:23:28.844Z,26.40
2017-07-08T18:25:56.409Z,26.30
2017-07-08T18:28:23.949Z,26.30
2017-07-08T18:30:52.238Z,26.10
2017-07-08T18:33:19.807Z,26.10
2017-07-08T18:35:47.378Z,26.20
2017-07-08T18:38:14.943Z,26.10
2017-07-08T18:40:42.515Z,25.90
2017-07-08T18:43:10.061Z,25.80
2017-07-08T18:45:37.615Z,25.70
2017-07-08T18:48:05.189Z,25.60
2017-07-08T18:50:33.076Z,25.60
2017-07-08T18:53:00.613Z,25.50
2017-07-08T18:55:28.131Z,25.40
2017-07-08T18:57:56.026Z,25.30
2017-07-08T19:00:23.558Z,25.30
2017-07-08T19:02:51.073Z,25.20
2017-07-08T19:05:18.766Z,25.10
2017-07-08T19:07:46.320Z,25.00
2017-07-08T19:10:14.648Z,24.70
2017-07-08T19:12:42.200Z,24.70
2017-07-08T19:15:09.753Z,24.60
2017-07-08T19:17:37.336Z,24.50
2017-07-08T19:20:05.220Z,24.30
2017-07-08T19:22:32.776Z,24.20
2017-07-08T19:25:00.587Z,24.10
2017-07-08T19:27:29.133Z,23.90
2017-07-08T19:29:56.717Z,23.90
2017-07-08T19:32:25.432Z,23.70
2017-07-08T19:34:52.963Z,23.70
2017-07-08T19:37:20.508Z,23.70
2017-07-08T19:39:48.555Z,23.60
2017-07-08T19:42:16.113Z,23.50
2017-07-08T19:44:43.689Z,23.40
2017-07-08T19:47:11.745Z,23.40
2017-07-08T19:49:39.259Z,23.30
2017-07-08T19:52:06.803Z,23.30
2017-07-08T19:54:34.363Z,23.20
2017-07-08T19:57:02.688Z,23.00
2017-07-08T19:59:30.229Z,23.00
2017-07-08T20:02:00.084Z,22.90
2017-07-08T20:04:31.623Z,22.80
2017-07-08T20:07:02.838Z,22.70
2017-07-08T20:09:30.897Z,22.60
2017-07-08T20:12:00.797Z,22.50
2017-07-08T20:14:29.596Z,22.40
2017-07-08T20:16:57.183Z,22.30
2017-07-08T20:19:24.724Z,22.30
2017-07-08T20:21:52.281Z,22.20
2017-07-08T20:24:19.871Z,22.10
2017-07-08T20:26:47.438Z,22.10
2017-07-08T20:29:15.104Z,22.10
2017-07-08T20:31:42.651Z,22.10
2017-07-08T20:34:10.631Z,22.00
2017-07-08T20:36:38.265Z,21.90
2017-07-08T20:39:05.819Z,21.90
2017-07-08T20:41:33.398Z,21.80
2017-07-08T20:44:00.974Z,21.80
2017-07-08T20:46:28.552Z,21.70
2017-07-08T20:48:56.883Z,21.70
2017-07-08T20:51:24.447Z,21.60
2017-07-08T20:53:51.995Z,21.60
2017-07-08T20:56:20.359Z,21.60
2017-07-08T20:58:48.009Z,21.50
2017-07-08T21:01:16.347Z,21.40
2017-07-08T21:03:43.915Z,21.30
2017-07-08T21:06:11.465Z,21.30
2017-07-08T21:08:39.009Z,21.30
2017-07-08T21:11:06.608Z,21.20
2017-07-08T21:13:34.211Z,21.10
2017-07-08T21:16:01.837Z,21.00
2017-07-08T21:18:29.868Z,21.00
2017-07-08T21:20:57.391Z,21.00
2017-07-08T21:23:24.932Z,20.90
2017-07-08T21:25:52.751Z,20.90
2017-07-08T21:28:20.331Z,20.90
2017-07-08T21:30:47.961Z,20.80
2017-07-08T21:33:15.786Z,20.80
2017-07-08T21:35:44.175Z,20.70
2017-07-08T21:38:11.722Z,20.70
2017-07-08T21:40:39.500Z,20.70
2017-07-08T21:43:07.006Z,20.70
2017-07-08T21:45:35.498Z,20.70
2017-07-08T21:48:03.352Z,20.70
2017-07-08T21:50:30.987Z,20.70
2017-07-08T21:52:58.553Z,20.70
2017-07-08T21:55:26.341Z,20.70
2017-07-08T21:57:54.126Z,20.70
2017-07-08T22:00:22.356Z,20.70
2017-07-08T22:02:50.265Z,20.70
2017-07-08T22:05:17.827Z,20.60
2017-07-08T22:07:45.376Z,20.50
2017-07-08T22:10:13.011Z,20.60
2017-07-08T22:12:40.594Z,20.50
2017-07-08T22:15:08.167Z,20.50
2017-07-08T22:17:35.850Z,20.50
2017-07-08T22:20:04.218Z,20.40
2017-07-08T22:22:31.820Z,20.30
2017-07-08T22:24:59.820Z,20.30
2017-07-08T22:27:28.225Z,20.20
2017-07-08T22:29:55.853Z,20.20
2017-07-08T22:32:24.175Z,20.10
2017-07-08T22:34:51.723Z,20.10
2017-07-08T22:37:20.177Z,20.10
2017-07-08T22:39:47.752Z,20.10
2017-07-08T22:42:15.553Z,20.00
2017-07-08T22:44:43.101Z,20.00
2017-07-08T22:47:11.103Z,19.90
2017-07-08T22:49:38.734Z,19.80
2017-07-08T22:52:06.269Z,19.80
2017-07-08T22:54:34.089Z,19.70
2017-07-08T22:57:01.610Z,19.70
2017-07-08T22:59:29.133Z,19.60
2017-07-08T23:01:57.090Z,19.50
2017-07-08T23:04:24.660Z,19.40
2017-07-08T23:06:52.153Z,19.40
2017-07-08T23:09:19.695Z,19.40
2017-07-08T23:11:47.224Z,19.40
2017-07-08T23:14:15.074Z,19.30
2017-07-08T23:16:42.612Z,19.20
2017-07-08T23:19:10.127Z,19.10
2017-07-08T23:21:37.962Z,19.00
2017-07-08T23:24:05.478Z,19.00
2017-07-08T23:26:33.761Z,19.00
2017-07-08T23:29:02.073Z,19.00
2017-07-08T23:31:29.587Z,19.00
2017-07-08T23:33:57.134Z,19.00
2017-07-08T23:36:24.954Z,19.00
2017-07-08T23:38:52.466Z,18.90
2017-07-08T23:41:20.002Z,18.80
2017-07-08T23:43:47.562Z,18.70
2017-07-08T23:46:15.071Z,18.70
2017-07-08T23:48:42.619Z,18.60
2017-07-08T23:51:10.540Z,18.50
2017-07-08T23:53:38.088Z,18.50
2017-07-08T23:56:05.619Z,18.50
2017-07-08T23:58:33.507Z,18.50
